createdAt,value
2018-05-16T00:00:37.983Z,95.20
2018-05-16T00:04:01.312Z,95.10
2018-05-16T00:07:26.147Z,95.30
2018-05-16T00:10:49.459Z,95.30
2018-05-16T00:14:12.805Z,94.90
2018-05-16T00:17:36.096Z,95.40
2018-05-16T00:20:59.495Z,95.70
2018-05-16T00:24:23.603Z,96.10
2018-05-16T00:27:46.896Z,96.10
2018-05-16T00:31:10.193Z,96.10
2018-05-16T00:34:33.509Z,96.30
2018-05-16T00:37:56.886Z,96.70
2018-05-16T00:41:20.202Z,96.50
2018-05-16T00:44:45.060Z,96.40
2018-05-16T00:48:08.405Z,96.40
2018-05-16T00:51:32.509Z,96.30
2018-05-16T00:54:55.855Z,96.50
2018-05-16T00:58:19.135Z,96.40
2018-05-16T01:01:42.563Z,96.50
2018-05-16T01:05:05.993Z,96.60
2018-05-16T01:08:29.271Z,96.80
2018-05-16T01:11:52.557Z,96.40
2018-05-16T01:15:15.877Z,96.40
2018-05-16T01:18:40.063Z,96.30
2018-05-16T01:22:03.365Z,96.10
2018-05-16T01:25:26.792Z,96.50
2018-05-16T01:28:50.126Z,96.10
2018-05-16T01:32:14.237Z,96.40
2018-05-16T01:35:37.515Z,96.40
2018-05-16T01:39:00.813Z,96.50
2018-05-16T01:42:24.141Z,96.10
2018-05-16T01:45:47.441Z,96.30
2018-05-16T01:49:19.793Z,96.50
2018-05-16T01:52:43.881Z,96.30
2018-05-16T01:56:07.201Z,96.30
2018-05-16T01:59:30.531Z,96.60
2018-05-16T02:02:54.625Z,96.60
2018-05-16T02:06:17.916Z,96.60
2018-05-16T02:09:41.261Z,96.80
2018-05-16T02:13:04.623Z,96.30
2018-05-16T02:16:27.899Z,96.00
2018-05-16T02:19:51.965Z,95.90
2018-05-16T02:23:15.286Z,95.80
2018-05-16T02:26:38.670Z,95.80
2018-05-16T02:30:02.791Z,96.20
2018-05-16T02:33:26.071Z,96.20
2018-05-16T02:36:49.356Z,96.30
2018-05-16T02:40:12.628Z,96.60
2018-05-16T02:43:35.923Z,95.40
2018-05-16T02:46:59.204Z,95.60
2018-05-16T02:50:22.500Z,95.60
2018-05-16T02:53:45.795Z,95.40
2018-05-16T02:57:09.123Z,95.90
2018-05-16T03:00:32.425Z,95.70
2018-05-16T03:03:55.980Z,95.50
2018-05-16T03:07:19.324Z,94.90
2018-05-16T03:10:43.586Z,95.40
2018-05-16T03:14:06.991Z,95.30
2018-05-16T03:17:30.297Z,95.50
2018-05-16T03:20:58.613Z,95.40
2018-05-16T03:24:21.991Z,95.50
2018-05-16T03:27:46.076Z,95.90
2018-05-16T03:31:10.188Z,95.40
2018-05-16T03:34:33.639Z,95.40
2018-05-16T03:37:56.974Z,95.40
2018-05-16T03:41:20.258Z,95.70
2018-05-16T03:44:43.553Z,95.70
2018-05-16T03:48:06.933Z,95.70
2018-05-16T03:51:30.277Z,95.80
2018-05-16T03:54:53.607Z,95.90
2018-05-16T03:58:34.565Z,95.90
2018-05-16T04:02:15.765Z,96.20
2018-05-16T04:05:39.964Z,95.80
2018-05-16T04:09:03.261Z,95.20
2018-05-16T04:12:26.635Z,95.10
2018-05-16T04:15:57.327Z,94.80
2018-05-16T04:19:23.813Z,94.80
2018-05-16T04:22:47.304Z,95.00
2018-05-16T04:26:10.568Z,95.30
2018-05-16T04:29:33.955Z,94.90
2018-05-16T04:32:57.318Z,95.00
2018-05-16T04:36:24.946Z,94.70
2018-05-16T04:39:48.442Z,94.90
2018-05-16T04:43:11.723Z,94.40
2018-05-16T04:46:35.011Z,94.60
2018-05-16T04:49:58.397Z,94.40
2018-05-16T04:53:23.309Z,94.40
2018-05-16T04:56:46.611Z,94.40
2018-05-16T05:00:09.881Z,94.30
2018-05-16T05:03:33.187Z,94.40
2018-05-16T05:06:56.601Z,94.60
2018-05-16T05:10:20.696Z,94.50
2018-05-16T05:13:44.050Z,94.50
2018-05-16T05:17:07.321Z,94.30
2018-05-16T05:20:30.607Z,94.30
2018-05-16T05:23:54.714Z,93.70
2018-05-16T05:27:18.049Z,93.70
2018-05-16T05:30:42.157Z,93.60
2018-05-16T05:34:05.487Z,93.60
2018-05-16T05:37:29.605Z,93.60
2018-05-16T05:40:52.951Z,93.50
2018-05-16T05:44:16.306Z,93.50
2018-05-16T05:47:39.659Z,92.90
2018-05-16T05:51:03.004Z,92.40
2018-05-16T05:54:26.344Z,92.50
2018-05-16T05:57:50.524Z,93.30
2018-05-16T06:01:13.849Z,93.30
2018-05-16T06:04:37.954Z,92.20
2018-05-16T06:08:01.249Z,92.20
2018-05-16T06:11:24.522Z,92.00
2018-05-16T06:14:48.701Z,91.50
2018-05-16T06:18:12.085Z,91.40
2018-05-16T06:21:36.207Z,91.40
2018-05-16T06:24:59.490Z,91.30
2018-05-16T06:28:22.859Z,91.60
2018-05-16T06:31:46.203Z,90.80
2018-05-16T06:35:09.557Z,90.20
2018-05-16T06:38:34.125Z,90.20
2018-05-16T06:41:58.236Z,86.70
2018-05-16T06:45:22.333Z,86.60
2018-05-16T06:48:45.750Z,87.40
2018-05-16T06:52:10.080Z,90.20
2018-05-16T06:55:33.427Z,89.40
2018-05-16T06:58:56.768Z,90.30
2018-05-16T07:02:20.139Z,91.20
2018-05-16T07:05:43.481Z,90.40
2018-05-16T07:09:06.833Z,90.90
2018-05-16T07:12:30.113Z,91.30
2018-05-16T07:15:54.240Z,92.20
2018-05-16T07:19:18.330Z,91.50
2018-05-16T07:22:42.457Z,91.80
2018-05-16T07:26:05.795Z,91.80
2018-05-16T07:29:29.183Z,90.30
2018-05-16T07:32:52.510Z,90.40
2018-05-16T07:36:15.795Z,91.10
2018-05-16T07:39:39.098Z,91.20
2018-05-16T07:43:02.437Z,91.20
2018-05-16T07:46:26.553Z,91.70
2018-05-16T07:49:49.882Z,91.70
2018-05-16T07:53:13.190Z,92.10
2018-05-16T07:56:36.543Z,92.60
2018-05-16T07:59:59.857Z,93.00
2018-05-16T08:03:23.188Z,93.20
2018-05-16T08:06:46.531Z,93.50
2018-05-16T08:10:10.839Z,93.80
2018-05-16T08:13:34.189Z,94.40
2018-05-16T08:16:57.527Z,94.20
2018-05-16T08:20:21.637Z,95.80
2018-05-16T08:23:45.057Z,95.80
2018-05-16T08:27:08.390Z,96.60
2018-05-16T08:30:31.699Z,96.60
2018-05-16T08:33:55.146Z,96.60
2018-05-16T08:37:18.487Z,96.90
2018-05-16T08:40:41.846Z,96.30
2018-05-16T08:44:05.132Z,96.20
2018-05-16T08:47:28.485Z,96.70
2018-05-16T08:50:51.783Z,96.70
2018-05-16T08:54:15.107Z,95.60
2018-05-16T08:57:38.485Z,95.20
2018-05-16T09:01:01.777Z,95.50
2018-05-16T09:04:25.119Z,94.40
2018-05-16T09:07:48.537Z,94.10
2018-05-16T09:11:11.877Z,94.00
2018-05-16T09:14:36.007Z,92.40
2018-05-16T09:17:59.389Z,92.40
2018-05-16T09:21:23.506Z,90.40
2018-05-16T09:24:47.106Z,90.40
2018-05-16T09:28:10.435Z,91.50
2018-05-16T09:31:33.827Z,90.80
2018-05-16T09:34:57.962Z,91.60
2018-05-16T09:38:21.332Z,91.60
2018-05-16T09:41:45.791Z,90.30
2018-05-16T09:45:09.830Z,91.80
2018-05-16T09:48:33.125Z,91.80
2018-05-16T09:51:56.493Z,90.90
2018-05-16T09:55:19.879Z,89.90
2018-05-16T09:58:43.974Z,91.20
2018-05-16T10:02:07.363Z,91.20
2018-05-16T10:05:30.715Z,91.40
2018-05-16T10:08:54.062Z,91.00
2018-05-16T10:12:17.344Z,90.80
2018-05-16T10:15:41.434Z,90.30
2018-05-16T10:19:04.730Z,87.70
2018-05-16T10:22:28.014Z,89.20
2018-05-16T10:25:51.310Z,89.20
2018-05-16T10:29:14.580Z,89.80
2018-05-16T10:32:37.866Z,87.20
2018-05-16T10:36:01.188Z,87.10
2018-05-16T10:39:25.235Z,85.70
2018-05-16T10:42:49.781Z,85.60
2018-05-16T10:46:13.850Z,88.40
2018-05-16T10:49:37.142Z,88.30
2018-05-16T10:53:04.180Z,88.10
2018-05-16T10:56:27.473Z,88.10
2018-05-16T10:59:52.888Z,87.70
2018-05-16T11:03:17.328Z,88.30
2018-05-16T11:06:41.353Z,89.30
2018-05-16T11:10:05.396Z,90.30
2018-05-16T11:13:36.606Z,90.30
2018-05-16T11:17:00.042Z,90.60
2018-05-16T11:20:23.408Z,90.60
2018-05-16T11:23:46.748Z,90.70
2018-05-16T11:27:10.106Z,91.30
2018-05-16T11:30:37.622Z,91.30
2018-05-16T11:34:00.976Z,92.40
2018-05-16T11:37:24.498Z,92.10
2018-05-16T11:40:48.570Z,90.60
2018-05-16T11:44:11.900Z,90.60
2018-05-16T11:47:35.192Z,91.50
2018-05-16T11:50:58.546Z,92.60
2018-05-16T11:54:21.833Z,91.70
2018-05-16T11:57:45.245Z,92.60
2018-05-16T12:01:08.533Z,92.90
2018-05-16T12:04:32.642Z,92.60
2018-05-16T12:07:56.005Z,92.60
2018-05-16T12:11:19.392Z,92.20
2018-05-16T12:14:43.794Z,92.20
2018-05-16T12:18:07.870Z,92.40
2018-05-16T12:21:31.174Z,92.40
2018-05-16T12:24:54.438Z,92.30
2018-05-16T12:28:17.740Z,92.10
2018-05-16T12:31:41.116Z,91.60
2018-05-16T12:35:05.192Z,91.70
2018-05-16T12:38:29.450Z,91.70
2018-05-16T12:41:52.802Z,91.80
2018-05-16T12:45:18.170Z,90.00
2018-05-16T12:48:41.447Z,89.80
2018-05-16T12:52:04.863Z,90.40
2018-05-16T12:55:28.220Z,90.30
2018-05-16T12:58:51.576Z,90.80
2018-05-16T13:02:14.848Z,91.10
2018-05-16T13:05:38.151Z,89.30
2018-05-16T13:09:01.662Z,88.20
2018-05-16T13:12:25.051Z,88.10
2018-05-16T13:15:49.183Z,90.20
2018-05-16T13:19:12.571Z,90.20
2018-05-16T13:22:36.697Z,89.40
2018-05-16T13:26:00.033Z,89.20
2018-05-16T13:29:24.220Z,87.40
2018-05-16T13:32:48.529Z,88.30
2018-05-16T13:36:12.620Z,87.60
2018-05-16T13:39:35.949Z,87.50
2018-05-16T13:42:59.290Z,89.20
2018-05-16T13:46:22.590Z,90.60
2018-05-16T13:49:45.871Z,91.50
2018-05-16T13:53:09.245Z,92.90
2018-05-16T13:56:33.376Z,92.60
2018-05-16T13:59:56.683Z,92.50
2018-05-16T14:03:20.729Z,92.40
2018-05-16T14:06:43.995Z,92.30
2018-05-16T14:10:08.105Z,92.20
2018-05-16T14:13:31.420Z,92.20
2018-05-16T14:16:54.707Z,91.80
2018-05-16T14:20:19.561Z,91.60
2018-05-16T14:23:42.836Z,91.50
2018-05-16T14:27:06.195Z,89.10
2018-05-16T14:30:29.469Z,87.30
2018-05-16T14:33:52.815Z,88.80
2018-05-16T14:37:16.980Z,88.70
2018-05-16T14:40:41.101Z,88.70
2018-05-16T14:44:03.704Z,88.50
2018-05-16T14:47:27.935Z,88.50
2018-05-16T14:50:51.223Z,86.10
2018-05-16T14:54:14.521Z,86.90
2018-05-16T14:57:37.872Z,83.60
2018-05-16T15:01:01.254Z,78.50
2018-05-16T15:04:24.616Z,80.10
2018-05-16T15:07:48.697Z,81.60
2018-05-16T15:11:12.022Z,81.50
2018-05-16T15:14:35.324Z,83.90
2018-05-16T15:17:58.684Z,83.10
2018-05-16T15:21:22.061Z,84.20
2018-05-16T15:24:46.888Z,86.40
2018-05-16T15:28:10.224Z,86.50
2018-05-16T15:31:34.297Z,84.20
2018-05-16T15:34:57.631Z,84.20
2018-05-16T15:38:20.917Z,84.50
2018-05-16T15:41:44.305Z,83.20
2018-05-16T15:45:08.362Z,82.20
2018-05-16T15:48:31.683Z,82.80
2018-05-16T15:51:56.419Z,82.10
2018-05-16T15:55:20.815Z,80.70
2018-05-16T15:58:45.507Z,80.50
2018-05-16T16:02:08.967Z,77.60
2018-05-16T16:05:33.899Z,67.70
2018-05-16T16:08:57.356Z,67.50
2018-05-16T16:12:21.788Z,68.60
2018-05-16T16:16:01.304Z,68.60
2018-05-16T16:19:25.689Z,66.00
2018-05-16T16:22:48.994Z,65.90
2018-05-16T16:26:12.669Z,62.60
2018-05-16T16:29:36.795Z,65.20
2018-05-16T16:33:00.080Z,65.10
2018-05-16T16:36:23.584Z,60.90
2018-05-16T16:39:46.959Z,61.80
2018-05-16T16:43:10.279Z,64.40
2018-05-16T16:46:34.592Z,63.40
2018-05-16T16:49:57.879Z,65.80
2018-05-16T16:53:21.865Z,63.60
2018-05-16T16:56:46.818Z,72.80
2018-05-16T17:00:12.122Z,75.30
2018-05-16T17:03:36.575Z,76.10
2018-05-16T17:07:00.804Z,77.70
2018-05-16T17:10:24.914Z,78.10
2018-05-16T17:13:49.072Z,78.10
2018-05-16T17:17:12.511Z,79.00
2018-05-16T17:20:35.930Z,80.30
2018-05-16T17:24:00.036Z,79.20
2018-05-16T17:27:24.359Z,82.00
2018-05-16T17:30:48.991Z,82.70
2018-05-16T17:34:13.482Z,82.70
2018-05-16T17:37:37.542Z,84.20
2018-05-16T17:41:01.514Z,84.10
2018-05-16T17:44:25.657Z,86.70
2018-05-16T17:47:49.766Z,89.80
2018-05-16T17:51:13.118Z,89.80
2018-05-16T17:54:36.651Z,90.90
2018-05-16T17:58:00.045Z,91.50
2018-05-16T18:01:24.094Z,92.60
2018-05-16T18:04:47.443Z,92.50
2018-05-16T18:08:10.902Z,93.00
2018-05-16T18:11:34.945Z,93.00
2018-05-16T18:15:22.955Z,93.00
2018-05-16T18:18:46.287Z,93.30
2018-05-16T18:22:09.610Z,93.30
2018-05-16T18:25:32.980Z,93.20
2018-05-16T18:28:56.315Z,94.00
2018-05-16T18:32:46.762Z,93.90
2018-05-16T18:36:10.316Z,93.50
2018-05-16T18:39:35.177Z,94.50
2018-05-16T18:42:58.535Z,94.50
2018-05-16T18:46:21.871Z,94.00
2018-05-16T18:49:45.163Z,93.50
2018-05-16T18:53:08.462Z,93.50
2018-05-16T18:56:31.814Z,93.30
2018-05-16T18:59:55.238Z,93.90
2018-05-16T19:03:18.522Z,93.70
2018-05-16T19:06:41.800Z,94.00
2018-05-16T19:10:05.152Z,94.60
2018-05-16T19:13:29.279Z,92.80
2018-05-16T19:16:53.334Z,93.60
2018-05-16T19:20:16.690Z,93.50
2018-05-16T19:23:40.049Z,93.80
2018-05-16T19:27:03.422Z,94.40
2018-05-16T19:30:26.795Z,94.60
2018-05-16T19:33:50.853Z,93.10
2018-05-16T19:37:14.234Z,93.00
2018-05-16T19:40:38.515Z,94.10
2018-05-16T19:44:01.786Z,94.00
2018-05-16T19:47:25.083Z,94.20
2018-05-16T19:50:48.514Z,94.10
2018-05-16T19:54:11.855Z,94.10
2018-05-16T19:57:35.214Z,95.00
2018-05-16T20:00:58.504Z,93.60
2018-05-16T20:04:21.850Z,93.40
2018-05-16T20:07:45.154Z,93.40
2018-05-16T20:11:08.616Z,95.10
2018-05-16T20:14:32.054Z,95.00
2018-05-16T20:17:56.133Z,95.20
2018-05-16T20:21:20.644Z,95.90
2018-05-16T20:24:44.811Z,95.30
2018-05-16T20:28:08.937Z,94.10
2018-05-16T20:31:34.040Z,94.00
2018-05-16T20:34:57.339Z,94.60
2018-05-16T20:38:20.700Z,94.20
2018-05-16T20:41:44.118Z,94.10
2018-05-16T20:45:07.498Z,93.70
2018-05-16T20:48:31.659Z,94.20
2018-05-16T20:51:55.790Z,95.10
2018-05-16T20:55:19.127Z,95.10
2018-05-16T20:58:42.407Z,95.40
2018-05-16T21:02:07.219Z,94.80
2018-05-16T21:05:30.496Z,94.80
2018-05-16T21:08:53.807Z,95.50
2018-05-16T21:12:17.166Z,95.60
2018-05-16T21:15:40.504Z,95.20
2018-05-16T21:19:03.805Z,94.90
2018-05-16T21:22:27.214Z,95.00
2018-05-16T21:25:50.533Z,94.60
2018-05-16T21:29:14.596Z,95.50
2018-05-16T21:32:37.889Z,95.20
2018-05-16T21:36:01.234Z,95.20
2018-05-16T21:39:24.515Z,94.80
2018-05-16T21:42:47.786Z,95.00
2018-05-16T21:46:11.173Z,95.20
2018-05-16T21:49:34.581Z,95.20
2018-05-16T21:52:57.875Z,95.70
2018-05-16T21:56:21.168Z,95.60
2018-05-16T21:59:44.513Z,95.70
2018-05-16T22:03:07.864Z,94.90
2018-05-16T22:06:31.166Z,95.10
2018-05-16T22:09:54.501Z,95.00
2018-05-16T22:13:17.824Z,95.30
2018-05-16T22:16:42.688Z,95.00
2018-05-16T22:20:05.989Z,95.00
2018-05-16T22:23:29.321Z,94.80
2018-05-16T22:26:52.607Z,95.50
2018-05-16T22:30:15.223Z,95.50
2018-05-16T22:33:45.536Z,95.10
2018-05-16T22:37:16.180Z,93.60
2018-05-16T22:40:45.854Z,93.30
2018-05-16T22:44:15.416Z,94.30
2018-05-16T22:47:38.689Z,94.30
2018-05-16T22:51:02.792Z,95.30
2018-05-16T22:54:26.142Z,95.30
2018-05-16T22:57:49.500Z,95.50
2018-05-16T23:01:12.798Z,95.70
2018-05-16T23:04:36.152Z,95.70
2018-05-16T23:07:59.516Z,95.20
2018-05-16T23:11:22.802Z,95.50
2018-05-16T23:14:46.139Z,95.80
2018-05-16T23:18:09.443Z,95.70
2018-05-16T23:21:32.720Z,95.30
2018-05-16T23:24:56.069Z,95.50
2018-05-16T23:28:19.494Z,95.80
2018-05-16T23:31:42.779Z,95.70
2018-05-16T23:35:06.146Z,95.90
2018-05-16T23:38:29.511Z,96.50
2018-05-16T23:41:52.858Z,96.20
2018-05-16T23:45:16.141Z,96.10
2018-05-16T23:48:39.430Z,96.00
2018-05-16T23:52:02.805Z,96.30
2018-05-16T23:55:26.170Z,95.90
2018-05-16T23:58:50.291Z,96.20
